Time;durP1;ratioP1;P1;durP2;ratioP2;P2;SDS_P1;SDS_P2;PMS_P1;PMS_P2;Temp;Humidity;BMP_temperature;BMP_pressure;BME280_temperature;BME280_humidity;BME280_pressure;Samples;Min_cycle;Max_cycle;Signal;HPM_P1;HPM_P2
2022/11/10 00:07:06;;;;;;;30.42;15.15;;;10.40;99.90;;;;;;20994279;28;20095;-77
2022/11/10 00:17:26;;;;;;;33.05;14.65;;;10.40;99.90;;;;;;20983781;28;20053;-77
2022/11/10 00:27:45;;;;;;;31.88;14.40;;;10.50;99.90;;;;;;20998709;28;20040;-77
2022/11/10 00:38:04;;;;;;;30.10;13.93;;;10.50;99.90;;;;;;20997761;28;20462;-77
2022/11/10 00:48:23;;;;;;;25.65;12.60;;;10.50;99.90;;;;;;20996130;28;20064;-77
2022/11/10 00:58:43;;;;;;;23.25;11.15;;;10.50;99.90;;;;;;20998205;28;20041;-77
2022/11/10 01:09:03;;;;;;;21.48;9.80;;;10.50;99.90;;;;;;20997281;28;20032;-77
2022/11/10 01:19:22;;;;;;;22.70;10.35;;;10.40;99.90;;;;;;21012906;28;20037;-76
2022/11/10 01:29:41;;;;;;;20.73;10.07;;;10.40;99.90;;;;;;20988595;28;20037;-77
2022/11/10 01:40:01;;;;;;;20.50;9.52;;;10.30;99.90;;;;;;21019432;28;20037;-78
2022/11/10 01:50:23;;;;;;;19.65;10.80;;;10.30;99.90;;;;;;21005424;28;20033;-78
2022/11/10 02:00:43;;;;;;;20.13;10.50;;;10.10;99.90;;;;;;21018222;28;20032;-77
2022/11/10 02:11:03;;;;;;;18.77;10.25;;;10.10;99.90;;;;;;20998929;28;20036;-77
2022/11/10 02:21:23;;;;;;;19.98;9.40;;;10.00;99.90;;;;;;21018904;28;20037;-77
2022/11/10 02:31:42;;;;;;;15.80;8.70;;;9.90;99.90;;;;;;21016089;28;20402;-78
2022/11/10 02:42:01;;;;;;;25.30;8.07;;;9.60;99.90;;;;;;20998759;28;20044;-78
2022/11/10 02:52:21;;;;;;;60.88;10.30;;;9.20;99.90;;;;;;21009449;28;20487;-77
2022/11/10 03:02:40;;;;;;;12.88;6.28;;;8.80;99.90;;;;;;21012516;28;20438;-78
2022/11/10 03:13:00;;;;;;;9.80;6.20;;;8.50;99.90;;;;;;21007532;28;20044;-78
2022/11/10 03:23:20;;;;;;;13.63;5.38;;;8.30;99.90;;;;;;21008227;28;20040;-77
2022/11/10 03:33:39;;;;;;;7.18;4.10;;;8.40;99.90;;;;;;21004061;28;20044;-77
2022/11/10 03:43:58;;;;;;;6.05;3.40;;;8.00;99.90;;;;;;21006984;28;20487;-77
2022/11/10 03:54:17;;;;;;;4.72;2.92;;;7.80;99.90;;;;;;20984773;28;20041;-77
2022/11/10 04:36:38;;;;;;;6.18;2.60;;;7.00;99.90;;;;;;21003942;28;20045;-77
2022/11/10 04:46:58;;;;;;;3.30;1.80;;;7.00;99.90;;;;;;20995487;28;20115;-77
2022/11/10 04:57:17;;;;;;;4.88;2.28;;;6.60;99.90;;;;;;21010683;28;20437;-77
2022/11/10 05:07:37;;;;;;;11.25;2.60;;;6.50;99.90;;;;;;21070247;28;20076;-77
2022/11/10 05:17:57;;;;;;;6.18;2.30;;;6.50;99.90;;;;;;21016022;28;20040;-77
2022/11/10 05:28:16;;;;;;;2.67;1.60;;;6.50;99.90;;;;;;21012357;28;20044;-79
2022/11/10 05:38:36;;;;;;;10.93;2.83;;;6.00;99.90;;;;;;20969597;28;20491;-78
2022/11/10 05:48:58;;;;;;;7.25;2.60;;;6.00;99.90;;;;;;20971567;28;20111;-77
2022/11/10 05:59:17;;;;;;;6.38;2.63;;;6.00;99.90;;;;;;20955449;28;20045;-77
2022/11/10 06:09:37;;;;;;;12.40;2.90;;;5.80;99.90;;;;;;21004848;28;20052;-78
2022/11/10 06:19:56;;;;;;;6.45;2.80;;;5.80;99.90;;;;;;20996597;28;20452;-77
2022/11/10 06:30:16;;;;;;;4.88;2.88;;;5.70;99.90;;;;;;20990344;28;20041;-77
2022/11/10 06:40:36;;;;;;;9.77;3.28;;;5.60;99.90;;;;;;20987111;28;20040;-77
2022/11/10 06:50:59;;;;;;;15.98;6.88;;;5.50;99.90;;;;;;20973638;28;20427;-78
2022/11/10 07:01:20;;;;;;;5.32;3.33;;;5.80;99.90;;;;;;20926375;28;20075;-77
2022/11/10 07:11:39;;;;;;;7.38;3.10;;;6.10;99.90;;;;;;20906700;28;20056;-78
2022/11/10 07:21:58;;;;;;;8.25;3.28;;;6.30;99.90;;;;;;20930777;28;20461;-77
2022/11/10 07:32:17;;;;;;;10.85;5.60;;;6.70;99.90;;;;;;20924027;28;20037;-77
2022/11/10 07:42:40;;;;;;;12.90;4.35;;;7.10;99.90;;;;;;20924154;28;20041;-77
2022/11/10 07:53:10;;;;;;;11.38;3.92;;;7.50;99.90;;;;;;20922532;28;20048;-77
2022/11/10 08:03:30;;;;;;;10.25;3.15;;;7.70;99.90;;;;;;20938014;28;20041;-77
2022/11/10 08:13:49;;;;;;;4.22;2.20;;;9.00;99.90;;;;;;20971451;28;20040;-76
2022/11/10 08:24:08;;;;;;;7.18;2.55;;;9.90;99.90;;;;;;20919116;28;20559;-77
2022/11/10 08:34:28;;;;;;;5.80;3.83;;;10.60;99.90;;;;;;20909930;28;20041;-77
2022/11/10 08:44:47;;;;;;;10.98;5.05;;;10.00;99.90;;;;;;20936248;28;20049;-77
2022/11/10 08:55:07;;;;;;;7.70;4.68;;;10.50;99.90;;;;;;20935533;28;20511;-77
2022/11/10 09:05:26;;;;;;;8.10;4.45;;;10.80;99.90;;;;;;20934927;28;20044;-77
2022/11/10 09:15:45;;;;;;;6.35;4.10;;;12.30;99.90;;;;;;20934977;28;20116;-77
2022/11/10 09:26:06;;;;;;;7.65;4.68;;;12.20;99.90;;;;;;20934573;28;20040;-76
2022/11/10 09:36:25;;;;;;;9.32;3.85;;;12.60;99.90;;;;;;20934990;28;20040;-77
2022/11/10 09:46:49;;;;;;;6.22;4.05;;;12.60;99.90;;;;;;20935163;28;20156;-77
2022/11/10 09:57:14;;;;;;;4.07;3.00;;;13.20;99.90;;;;;;20927664;28;20037;-77
2022/11/10 10:07:38;;;;;;;4.50;2.97;;;13.10;99.90;;;;;;20912422;28;20029;-78
2022/11/10 10:18:27;;;;;;;7.28;2.90;;;13.70;99.90;;;;;;20907912;28;20041;-77
2022/11/10 10:28:48;;;;;;;4.80;2.70;;;13.80;99.90;;;;;;20923825;28;20072;-77
2022/11/10 10:39:16;;;;;;;5.25;3.00;;;14.90;99.90;;;;;;20923277;28;20511;-78
2022/11/10 10:49:35;;;;;;;6.75;2.13;;;17.20;99.90;;;;;;20996252;28;20032;-78
2022/11/10 11:00:16;;;;;;;7.20;2.65;;;17.60;99.90;;;;;;21083050;28;20044;-78
2022/11/10 11:10:44;;;;;;;6.40;2.38;;;16.30;99.90;;;;;;20997165;28;20033;-78
2022/11/10 11:21:12;;;;;;;3.63;1.70;;;17.50;99.90;;;;;;20949793;28;20041;-77
2022/11/10 11:32:08;;;;;;;10.35;1.95;;;16.30;99.90;;;;;;20968481;28;20504;-77
2022/11/10 11:42:36;;;;;;;9.18;2.10;;;15.80;99.90;;;;;;20964556;28;20068;-78
2022/11/10 11:53:24;;;;;;;4.50;2.30;;;15.50;99.90;;;;;;20971877;28;20036;-78
2022/11/10 12:04:05;;;;;;;6.30;2.72;;;15.60;99.90;;;;;;20969935;28;20037;-78
2022/11/10 12:14:31;;;;;;;2.97;2.00;;;14.60;99.90;;;;;;20964455;28;20119;-77
2022/11/10 12:24:54;;;;;;;6.28;1.83;;;15.50;99.90;;;;;;20962220;28;20045;-77
2022/11/10 12:35:36;;;;;;;4.82;2.10;;;17.20;99.90;;;;;;20961927;28;20037;-78
2022/11/10 12:46:04;;;;;;;9.83;6.13;;;17.00;99.90;;;;;;20930131;28;20045;-78
2022/11/10 12:56:29;;;;;;;7.45;2.75;;;17.90;99.90;;;;;;20924058;28;20036;-78
2022/11/10 13:07:09;;;;;;;4.88;2.20;;;16.10;99.90;;;;;;20922845;28;20033;-78
2022/11/10 13:17:49;;;;;;;6.30;2.65;;;16.20;99.90;;;;;;20921810;28;20488;-78
2022/11/10 13:28:10;;;;;;;3.35;1.40;;;16.20;99.90;;;;;;20930974;28;20056;-76
2022/11/10 13:38:44;;;;;;;5.68;1.30;;;17.00;99.90;;;;;;20942669;28;20139;-77
2022/11/10 13:49:40;;;;;;;4.65;1.23;;;16.50;99.90;;;;;;20977004;28;20029;-77
2022/11/10 14:00:25;;;;;;;5.15;1.17;;;16.00;99.90;;;;;;20958818;28;20484;-77
2022/11/10 14:11:02;;;;;;;7.60;1.60;;;15.90;99.90;;;;;;20949887;28;20037;-77
2022/11/10 14:21:44;;;;;;;4.20;1.38;;;16.10;99.90;;;;;;20947731;28;20033;-77
2022/11/10 14:32:19;;;;;;;4.40;1.35;;;16.60;99.90;;;;;;20939428;28;20499;-77
2022/11/10 14:42:38;;;;;;;2.92;1.27;;;16.70;99.90;;;;;;20937518;28;20041;-78
2022/11/10 14:53:05;;;;;;;4.00;1.33;;;16.40;99.90;;;;;;20923599;28;20041;-77
2022/11/10 15:03:40;;;;;;;7.57;1.92;;;17.00;99.90;;;;;;20943221;28;20541;-78
2022/11/10 15:13:59;;;;;;;6.88;1.75;;;17.00;99.90;;;;;;20995186;28;20033;-78
2022/11/10 15:24:26;;;;;;;4.03;1.40;;;17.40;99.90;;;;;;21000797;28;20115;-77
2022/11/10 15:34:46;;;;;;;4.82;1.40;;;16.40;99.90;;;;;;20987799;28;20033;-77
2022/11/10 15:45:06;;;;;;;8.48;2.08;;;15.70;99.90;;;;;;20977568;28;20491;-77
2022/11/10 15:55:25;;;;;;;5.45;2.65;;;12.60;99.90;;;;;;20973805;28;20491;-77
2022/11/10 16:05:44;;;;;;;6.20;2.47;;;12.00;99.90;;;;;;20920458;28;20096;-77
2022/11/10 16:16:05;;;;;;;5.82;2.50;;;11.20;99.90;;;;;;21030673;28;20045;-77
2022/11/10 16:26:25;;;;;;;4.70;2.78;;;10.80;99.90;;;;;;21100689;28;20028;-77
2022/11/10 16:36:46;;;;;;;6.30;2.53;;;10.70;99.90;;;;;;21108376;28;20036;-78
2022/11/10 16:47:17;;;;;;;8.10;2.78;;;10.80;99.90;;;;;;21123727;28;20099;-77
2022/11/10 16:57:36;;;;;;;4.78;2.85;;;10.60;99.90;;;;;;21142122;28;20036;-77
2022/11/10 17:07:57;;;;;;;15.82;7.95;;;9.90;99.90;;;;;;21139949;28;20036;-76
2022/11/10 17:18:20;;;;;;;7.95;2.72;;;10.30;99.90;;;;;;21076595;28;20052;-76
2022/11/10 17:28:40;;;;;;;6.93;2.28;;;9.20;99.90;;;;;;21074950;28;20044;-75
2022/11/10 17:38:59;;;;;;;11.40;2.70;;;9.20;99.90;;;;;;21076801;28;20028;-76
2022/11/10 17:49:18;;;;;;;5.93;2.65;;;9.40;99.90;;;;;;21089248;28;20306;-76
2022/11/10 17:59:38;;;;;;;10.05;2.58;;;9.30;99.90;;;;;;21093809;28;20398;-76
2022/11/10 18:09:57;;;;;;;9.27;2.95;;;8.80;99.90;;;;;;21089030;28;20119;-76
2022/11/10 18:20:16;;;;;;;13.23;2.65;;;8.70;99.90;;;;;;21070869;28;20494;-76
2022/11/10 18:30:37;;;;;;;4.47;2.35;;;8.60;99.90;;;;;;21087303;28;20040;-76
2022/11/10 18:41:47;;;;;;;8.60;2.97;;;8.60;99.90;;;;;;21083430;28;20040;-76
2022/11/10 18:51:40;;;;;;;4.00;2.70;;;8.30;99.90;;;;;;21088949;28;20036;-76
2022/11/10 19:01:59;;;;;;;3.42;2.40;;;8.30;99.90;;;;;;21088322;28;20126;-76
2022/11/10 19:12:19;;;;;;;6.55;2.88;;;8.10;99.90;;;;;;21015197;28;20048;-76
2022/11/10 19:22:38;;;;;;;5.35;2.63;;;7.90;99.90;;;;;;20989819;22;20045;-77
2022/11/10 19:32:58;;;;;;;4.93;2.53;;;8.00;99.90;;;;;;21062160;28;20036;-77
2022/11/10 19:43:17;;;;;;;4.57;1.85;;;7.90;99.90;;;;;;21076759;28;20048;-77
2022/11/10 19:53:36;;;;;;;5.55;1.80;;;7.70;99.90;;;;;;21078914;28;20043;-77
2022/11/10 20:03:57;;;;;;;3.88;1.40;;;7.80;99.90;;;;;;21076809;28;20490;-76
2022/11/10 20:14:16;;;;;;;4.10;1.70;;;7.70;99.90;;;;;;21019196;28;20473;-77
2022/11/10 20:24:36;;;;;;;2.40;1.27;;;7.70;99.90;;;;;;20989985;28;20541;-77
2022/11/10 20:34:55;;;;;;;4.30;1.70;;;7.50;99.90;;;;;;20978064;28;20044;-77
2022/11/10 20:45:15;;;;;;;4.43;1.80;;;7.40;99.90;;;;;;20959906;28;20037;-77
2022/11/10 20:55:38;;;;;;;5.22;1.65;;;7.40;99.90;;;;;;20959814;28;20487;-77
2022/11/10 21:05:58;;;;;;;2.40;1.58;;;7.20;99.90;;;;;;20946581;28;20037;-77
2022/11/10 21:16:17;;;;;;;2.55;1.20;;;7.10;99.90;;;;;;21016314;28;20045;-76
2022/11/10 21:26:36;;;;;;;3.47;1.40;;;7.20;99.90;;;;;;21043533;28;20033;-77
2022/11/10 21:36:56;;;;;;;2.42;1.40;;;7.30;99.90;;;;;;20952858;28;20044;-77
2022/11/10 21:47:15;;;;;;;2.33;1.20;;;7.20;99.90;;;;;;21027631;28;20037;-77
2022/11/10 21:57:35;;;;;;;6.55;1.73;;;6.90;99.90;;;;;;21008946;28;20044;-77
2022/11/10 22:07:54;;;;;;;2.33;1.30;;;6.90;99.90;;;;;;21002194;28;20119;-77
2022/11/10 22:28:54;;;;;;;3.22;1.38;;;6.70;99.90;;;;;;21000095;28;20574;-77
2022/11/10 22:39:13;;;;;;;8.40;3.95;;;6.60;99.90;;;;;;20998888;28;20490;-77
2022/11/10 22:49:32;;;;;;;5.93;3.00;;;6.40;99.90;;;;;;20997938;28;20032;-77
2022/11/10 22:59:52;;;;;;;4.68;1.40;;;6.20;99.90;;;;;;20996621;28;20032;-77
2022/11/10 23:10:11;;;;;;;4.28;1.73;;;6.20;99.90;;;;;;20997411;28;20086;-76
2022/11/10 23:20:30;;;;;;;1.95;1.30;;;6.30;99.90;;;;;;20996705;28;20486;-77
2022/11/10 23:30:49;;;;;;;4.30;2.03;;;6.10;99.90;;;;;;20991897;28;20135;-76
2022/11/10 23:41:14;;;;;;;1.73;1.20;;;6.10;99.90;;;;;;20992778;28;20032;-76
2022/11/10 23:51:34;;;;;;;1.92;1.30;;;6.00;99.90;;;;;;20991684;28;20075;-76
